Time;durP1;ratioP1;P1;durP2;ratioP2;P2;SDS_P1;SDS_P2;PMS_P1;PMS_P2;Temp;Humidity;BMP_temperature;BMP_pressure;BME280_temperature;BME280_humidity;BME280_pressure;Samples;Min_cycle;Max_cycle;Signal;HPM_P1;HPM_P2
2022/10/03 00:00:18;;;;;;;0.10;0.10;;;9.00;99.90;;;9.01;100.00;101866.78;4780877;29;20227;-65
2022/10/03 00:03:13;;;;;;;0.10;0.10;;;9.10;99.90;;;9.01;100.00;101875.59;4769268;29;20216;-65
2022/10/03 00:05:41;;;;;;;0.10;0.10;;;9.00;99.90;;;9.04;100.00;101873.09;4860590;29;20222;-66
2022/10/03 00:08:24;;;;;;;0.10;0.10;;;9.00;99.90;;;9.09;100.00;101894.38;4841868;29;20221;-65
2022/10/03 00:10:55;;;;;;;0.10;0.10;;;9.00;99.90;;;9.07;100.00;101896.06;4882314;29;20229;-65
2022/10/03 00:13:40;;;;;;;0.10;0.10;;;9.00;99.90;;;9.12;100.00;101894.53;4820207;29;21119;-66
2022/10/03 00:16:22;;;;;;;0.10;0.10;;;9.10;99.90;;;9.11;100.00;101893.63;4850589;29;20221;-66
2022/10/03 00:19:34;;;;;;;0.10;0.10;;;9.10;99.90;;;9.16;100.00;101899.06;4835426;29;20217;-65
2022/10/03 00:22:49;;;;;;;0.00;0.00;;;9.10;99.90;;;9.13;100.00;101901.59;4821895;29;20232;-66
2022/10/03 00:26:25;;;;;;;0.05;0.05;;;9.10;99.90;;;9.21;100.00;101922.16;4784597;29;20221;-65
2022/10/03 00:29:14;;;;;;;0.10;0.10;;;9.10;99.90;;;9.20;100.00;101928.28;4855350;29;20216;-65
2022/10/03 00:32:07;;;;;;;0.00;0.00;;;9.20;99.90;;;9.27;100.00;101932.06;4873656;29;20213;-65
2022/10/03 00:34:50;;;;;;;0.10;0.10;;;9.20;99.90;;;9.42;100.00;101944.94;4872835;29;20237;-67
2022/10/03 00:37:40;;;;;;;0.10;0.10;;;9.40;99.90;;;9.87;100.00;101977.44;4838359;29;20220;-65
2022/10/03 00:40:38;;;;;;;0.00;0.00;;;9.60;99.90;;;9.96;100.00;101977.78;4848371;29;20209;-65
2022/10/03 00:43:54;;;;;;;0.10;0.10;;;9.90;99.90;;;10.23;100.00;101993.75;4836444;29;20221;-64
2022/10/03 00:47:03;;;;;;;0.10;0.10;;;10.10;99.90;;;10.31;100.00;102015.19;4852724;29;20225;-65
2022/10/03 00:50:04;;;;;;;0.00;0.00;;;10.20;99.90;;;10.40;100.00;102018.13;4811455;29;20228;-65
2022/10/03 00:53:05;;;;;;;0.10;0.10;;;10.30;99.90;;;10.40;100.00;102023.44;4851719;29;20237;-66
2022/10/03 00:56:06;;;;;;;0.30;0.30;;;10.40;99.90;;;10.48;100.00;102028.19;4827426;29;20211;-65
2022/10/03 00:58:51;;;;;;;0.10;0.10;;;10.40;99.90;;;10.51;100.00;102036.22;4835120;29;20213;-66
2022/10/03 01:01:34;;;;;;;0.10;0.10;;;10.50;99.90;;;10.54;100.00;102036.31;4865244;29;20217;-65
2022/10/03 01:04:40;;;;;;;0.00;0.00;;;10.50;99.90;;;10.53;100.00;102028.34;4852568;29;20245;-65
2022/10/03 01:07:38;;;;;;;0.00;0.00;;;10.50;99.90;;;10.43;100.00;102018.28;4872003;29;20220;-65
2022/10/03 01:10:21;;;;;;;0.10;0.10;;;10.40;99.90;;;10.46;100.00;102014.00;4850688;29;20259;-65
2022/10/03 01:13:08;;;;;;;0.00;0.00;;;10.40;99.90;;;10.33;100.00;102011.75;4858195;29;20216;-64
2022/10/03 01:15:54;;;;;;;0.10;0.10;;;10.40;99.90;;;10.28;100.00;102015.97;4848421;29;20213;-65
2022/10/03 01:18:43;;;;;;;0.10;0.10;;;10.20;99.90;;;10.26;100.00;102012.38;4867934;29;20205;-65
2022/10/03 01:21:40;;;;;;;0.00;0.00;;;10.30;99.90;;;10.24;100.00;102017.59;4888020;29;20224;-65
2022/10/03 01:24:38;;;;;;;0.10;0.10;;;10.20;99.90;;;10.08;100.00;102007.28;4854070;29;20706;-65
2022/10/03 01:30:53;;;;;;;0.00;0.00;;;10.10;99.90;;;10.06;100.00;102008.97;4801260;29;20245;-65
2022/10/03 01:33:41;;;;;;;0.10;0.10;;;10.10;99.90;;;10.03;100.00;102000.94;4859688;29;20248;-65
2022/10/03 01:36:22;;;;;;;0.20;0.20;;;10.00;99.90;;;9.85;100.00;101993.25;4840444;29;20227;-65
2022/10/03 01:39:19;;;;;;;0.25;0.25;;;10.00;99.90;;;9.87;100.00;101996.84;4830344;29;20208;-66
2022/10/03 01:42:01;;;;;;;0.00;0.00;;;9.90;99.90;;;9.83;100.00;101989.66;4879906;29;20208;-65
2022/10/03 01:45:22;;;;;;;0.10;0.10;;;9.90;99.90;;;9.86;100.00;101999.44;4850895;29;20236;-66
2022/10/03 01:48:21;;;;;;;0.00;0.00;;;9.90;99.90;;;9.88;100.00;101995.09;4879696;29;20217;-66
2022/10/03 01:51:02;;;;;;;0.20;0.20;;;9.90;99.90;;;9.78;100.00;101993.84;4845547;29;20738;-67
2022/10/03 01:53:50;;;;;;;0.35;0.35;;;9.80;99.90;;;9.81;100.00;101995.72;4878606;29;20256;-66
2022/10/03 01:56:34;;;;;;;0.38;0.38;;;9.80;99.90;;;9.70;100.00;101997.06;4844243;29;20279;-66
2022/10/03 01:59:21;;;;;;;0.00;0.00;;;9.70;99.90;;;9.73;100.00;101997.16;4839831;29;20667;-66
2022/10/03 02:01:59;;;;;;;0.10;0.10;;;9.70;99.90;;;9.72;100.00;101993.63;4853749;29;20205;-65
2022/10/03 02:04:44;;;;;;;0.10;0.10;;;9.70;99.90;;;9.78;100.00;102003.53;4859424;29;20233;-66
2022/10/03 02:08:16;;;;;;;0.10;0.10;;;9.80;99.90;;;9.60;100.00;101985.25;4853204;29;20674;-68
2022/10/03 02:10:53;;;;;;;1.55;0.55;;;9.60;99.90;;;9.55;100.00;101982.44;4793635;29;20243;-64
2022/10/03 02:13:51;;;;;;;0.10;0.10;;;9.60;99.90;;;9.37;100.00;101957.06;4836481;29;20240;-64
2022/10/03 02:16:43;;;;;;;0.00;0.00;;;9.50;99.90;;;9.10;100.00;101939.34;4808331;29;20205;-65
2022/10/03 02:19:30;;;;;;;0.32;0.32;;;9.20;99.90;;;8.89;100.00;101928.81;4810163;29;20222;-64
2022/10/03 02:21:59;;;;;;;0.10;0.10;;;9.00;99.90;;;8.78;100.00;101916.94;4837162;29;20220;-64
2022/10/03 02:24:36;;;;;;;0.10;0.10;;;8.80;99.90;;;8.69;100.00;101905.09;4819324;29;20241;-64
2022/10/03 02:27:54;;;;;;;0.30;0.30;;;8.70;99.90;;;8.48;100.00;101900.78;4883551;29;20212;-64
2022/10/03 02:30:58;;;;;;;0.45;0.30;;;8.60;99.90;;;8.47;100.00;101904.25;4789935;29;21062;-64
2022/10/03 02:33:46;;;;;;;0.15;0.15;;;8.50;99.90;;;8.43;100.00;101897.03;4800440;29;20603;-64
2022/10/03 02:36:32;;;;;;;0.47;0.47;;;8.40;99.90;;;8.41;100.00;101895.19;4866901;29;20222;-64
2022/10/03 02:39:33;;;;;;;0.10;0.10;;;8.40;99.90;;;8.21;100.00;101879.41;4837367;29;20213;-65
2022/10/03 02:42:37;;;;;;;0.00;0.00;;;8.30;99.90;;;8.22;100.00;101880.31;4851179;29;20205;-64
2022/10/03 02:45:52;;;;;;;0.10;0.10;;;8.20;99.90;;;8.11;100.00;101876.34;4853467;29;20257;-64
2022/10/03 02:48:58;;;;;;;4.28;1.95;;;8.10;99.90;;;8.10;100.00;101874.53;4887180;29;21706;-64
2022/10/03 02:52:01;;;;;;;0.32;0.32;;;8.10;99.90;;;8.09;100.00;101872.72;4855238;29;20255;-64
2022/10/03 02:55:26;;;;;;;0.10;0.10;;;8.10;99.90;;;7.96;100.00;101858.16;4842000;29;20248;-64
2022/10/03 02:58:00;;;;;;;0.03;0.03;;;8.00;99.90;;;7.90;100.00;101861.41;4760827;30;20238;-64
2022/10/03 03:00:49;;;;;;;0.10;0.10;;;7.90;99.90;;;7.90;100.00;101856.16;4763094;29;20226;-64
2022/10/03 03:03:59;;;;;;;0.10;0.10;;;7.90;99.90;;;7.93;100.00;101868.56;4871431;29;20229;-64
2022/10/03 03:07:15;;;;;;;0.10;0.10;;;7.90;99.90;;;7.85;100.00;101868.22;4841510;29;20213;-64
2022/10/03 03:10:11;;;;;;;0.10;0.10;;;7.80;99.90;;;7.89;100.00;101871.91;4857375;29;20228;-64
2022/10/03 03:13:09;;;;;;;0.10;0.10;;;7.80;99.90;;;7.86;100.00;101879.66;4835231;29;20221;-63
2022/10/03 03:16:16;;;;;;;0.20;0.20;;;7.80;99.90;;;7.91;100.00;101883.41;4867014;29;20217;-64
2022/10/03 03:19:13;;;;;;;0.10;0.10;;;7.80;99.90;;;7.69;100.00;101866.63;4867265;29;20670;-64
2022/10/03 03:21:54;;;;;;;0.20;0.20;;;7.80;99.90;;;7.70;100.00;101876.34;4845161;29;20218;-63
2022/10/03 03:24:59;;;;;;;0.20;0.20;;;7.70;99.90;;;7.60;100.00;101875.88;4859653;29;20244;-64
2022/10/03 03:28:04;;;;;;;0.63;0.43;;;7.60;99.90;;;7.65;100.00;101882.22;4845401;29;20236;-64
2022/10/03 03:30:47;;;;;;;0.10;0.10;;;7.60;99.90;;;7.41;100.00;101868.00;4864047;29;20221;-64
2022/10/03 03:33:27;;;;;;;0.10;0.10;;;7.50;99.90;;;7.45;100.00;101876.09;4847939;29;20241;-64
2022/10/03 03:36:06;;;;;;;0.20;0.20;;;7.40;99.90;;;7.46;100.00;101879.63;4820243;29;20212;-64
2022/10/03 03:39:18;;;;;;;0.10;0.10;;;7.40;99.90;;;7.48;100.00;101883.22;4836719;29;20212;-65
2022/10/03 03:42:21;;;;;;;0.10;0.10;;;7.50;99.90;;;7.44;100.00;101878.66;4841987;29;20216;-64
2022/10/03 03:45:28;;;;;;;0.10;0.10;;;7.40;99.90;;;7.53;100.00;101882.59;4850834;29;20233;-64
2022/10/03 03:48:11;;;;;;;0.10;0.10;;;7.50;99.90;;;7.38;100.00;101881.91;4844144;29;20217;-64
2022/10/03 03:51:15;;;;;;;0.43;0.43;;;7.40;99.90;;;7.24;100.00;101873.41;4868808;29;20232;-64
2022/10/03 03:53:56;;;;;;;0.20;0.20;;;7.30;99.90;;;7.17;100.00;101870.41;4850258;29;20240;-64
2022/10/03 03:56:42;;;;;;;0.10;0.10;;;7.20;99.90;;;7.20;100.00;101871.44;4866127;29;20212;-64
2022/10/03 04:00:02;;;;;;;0.10;0.10;;;7.20;99.90;;;7.35;100.00;101884.41;4831740;29;20209;-65
2022/10/03 04:03:11;;;;;;;0.10;0.10;;;7.30;99.90;;;7.32;100.00;101887.78;4849467;29;20221;-64
2022/10/03 04:06:19;;;;;;;0.10;0.10;;;7.30;99.90;;;7.27;100.00;101891.94;4849385;29;20276;-63
2022/10/03 04:09:25;;;;;;;0.10;0.10;;;7.30;99.90;;;7.21;100.00;101891.69;4834811;29;20220;-64
2022/10/03 04:12:48;;;;;;;0.20;0.20;;;7.20;99.90;;;7.20;100.00;101903.03;4865995;29;20233;-64
2022/10/03 04:15:39;;;;;;;0.10;0.10;;;7.20;99.90;;;7.24;100.00;101906.69;4836554;29;20237;-64
2022/10/03 04:21:54;;;;;;;0.30;0.30;;;7.20;99.90;;;7.28;100.00;101927.97;4851678;29;20225;-63
2022/10/03 04:24:45;;;;;;;0.10;0.10;;;7.30;99.90;;;7.22;100.00;101924.16;4849816;29;20229;-66
2022/10/03 04:28:07;;;;;;;0.10;0.10;;;7.20;99.90;;;7.14;100.00;101915.00;4818925;29;20206;-67
2022/10/03 04:31:03;;;;;;;0.10;0.10;;;7.10;99.90;;;7.10;100.00;101921.84;4778210;29;20228;-66
2022/10/03 04:33:55;;;;;;;0.10;0.10;;;7.10;99.90;;;7.04;100.00;101919.84;4851055;29;20236;-66
2022/10/03 04:36:48;;;;;;;0.20;0.20;;;7.10;99.90;;;6.87;100.00;101901.47;4834193;29;20586;-66
2022/10/03 04:39:35;;;;;;;0.20;0.20;;;7.00;99.90;;;6.90;100.00;101917.38;4851102;29;20229;-66
2022/10/03 04:42:15;;;;;;;0.30;0.30;;;6.90;99.90;;;6.90;100.00;101909.50;4830553;29;20210;-67
2022/10/03 04:45:32;;;;;;;0.10;0.10;;;6.90;99.90;;;6.90;100.00;101915.66;4862895;29;20236;-66
2022/10/03 04:48:27;;;;;;;0.10;0.10;;;6.90;99.90;;;6.66;100.00;101894.34;4861077;29;20205;-65
2022/10/03 04:51:26;;;;;;;0.20;0.20;;;6.70;99.90;;;6.58;100.00;101889.56;4806091;29;20197;-65
2022/10/03 04:54:03;;;;;;;0.20;0.20;;;6.60;99.90;;;6.58;100.00;101893.09;4817729;29;20245;-67
2022/10/03 04:56:58;;;;;;;0.10;0.10;;;6.60;99.90;;;6.49;100.00;101884.72;4849368;29;20211;-66
2022/10/03 04:59:50;;;;;;;0.10;0.10;;;6.50;99.90;;;6.52;100.00;101884.91;4853890;29;20340;-66
2022/10/03 05:02:44;;;;;;;0.20;0.20;;;6.50;99.90;;;6.47;100.00;101894.25;4841579;29;20217;-66
2022/10/03 05:05:26;;;;;;;0.20;0.20;;;6.50;99.90;;;6.55;100.00;101890.31;4838564;29;20241;-64
2022/10/03 05:08:16;;;;;;;0.20;0.20;;;6.50;99.90;;;6.43;100.00;101890.56;4832975;29;20725;-64
2022/10/03 05:10:51;;;;;;;0.20;0.20;;;6.50;99.90;;;6.41;100.00;101896.59;4847549;29;20218;-64
2022/10/03 05:13:48;;;;;;;0.10;0.10;;;6.40;99.90;;;6.43;100.00;101908.06;4833824;29;20233;-64
2022/10/03 05:16:54;;;;;;;0.10;0.10;;;6.40;99.90;;;6.59;100.00;101928.16;4815499;29;20245;-64
2022/10/03 05:19:35;;;;;;;0.10;0.10;;;6.50;99.90;;;6.59;100.00;101933.41;4833592;29;20662;-64
2022/10/03 05:22:30;;;;;;;0.10;0.10;;;6.60;99.90;;;6.36;100.00;101925.25;4814992;29;20244;-65
2022/10/03 05:29:38;;;;;;;0.93;0.85;;;6.70;99.90;;;7.19;100.00;101921.38;4855288;29;20224;-65
2022/10/03 05:32:22;;;;;;;0.10;0.10;;;7.00;99.90;;;7.29;100.00;101906.06;4824470;29;20221;-67
2022/10/03 05:35:17;;;;;;;0.10;0.10;;;7.20;99.90;;;7.36;100.00;101897.63;4853533;29;20229;-66
2022/10/03 05:38:12;;;;;;;0.10;0.10;;;7.30;99.90;;;7.45;100.00;101893.63;4837531;29;20209;-66
2022/10/03 05:40:48;;;;;;;0.20;0.20;;;7.30;99.90;;;7.42;100.00;101878.59;4837858;29;20209;-65
2022/10/03 05:43:35;;;;;;;0.10;0.10;;;7.30;99.90;;;7.46;100.00;101877.00;4835943;29;20240;-66
2022/10/03 05:46:34;;;;;;;0.20;0.20;;;7.40;99.90;;;7.54;100.00;101883.50;4831405;29;20232;-66
2022/10/03 05:49:22;;;;;;;0.10;0.10;;;7.40;99.90;;;7.47;100.00;101868.25;4847850;29;20226;-66
2022/10/03 05:52:20;;;;;;;0.10;0.10;;;7.30;99.90;;;7.47;100.00;101874.44;4853030;29;20238;-66
2022/10/03 05:55:06;;;;;;;0.40;0.40;;;7.40;99.90;;;7.46;100.00;101862.09;4854643;29;20225;-66
2022/10/03 05:57:56;;;;;;;0.52;0.52;;;7.40;99.90;;;7.50;100.00;101857.88;4840098;29;20209;-65
2022/10/03 06:01:03;;;;;;;0.20;0.20;;;7.40;99.90;;;7.45;100.00;101847.13;4839540;29;20240;-65
2022/10/03 06:03:59;;;;;;;0.10;0.10;;;7.40;99.90;;;7.51;100.00;101852.66;4852941;29;20225;-66
2022/10/03 06:06:55;;;;;;;1.27;1.15;;;7.40;99.90;;;7.49;100.00;101856.06;4855656;29;20224;-66
2022/10/03 06:10:21;;;;;;;0.20;0.20;;;7.40;99.90;;;7.45;100.00;101862.94;4821127;29;20206;-65
2022/10/03 06:13:07;;;;;;;0.25;0.25;;;7.40;99.90;;;7.51;100.00;101867.56;4847876;29;20232;-65
2022/10/03 06:15:53;;;;;;;0.10;0.10;;;7.50;99.90;;;7.60;100.00;101867.97;4839496;29;20212;-64
2022/10/03 06:18:41;;;;;;;0.10;0.10;;;7.50;99.90;;;7.55;100.00;101874.75;4871113;29;20213;-64
2022/10/03 06:21:16;;;;;;;0.10;0.10;;;7.50;99.90;;;7.63;100.00;101874.28;4868947;29;20214;-66
2022/10/03 06:23:53;;;;;;;0.20;0.20;;;7.50;99.90;;;7.59;100.00;101866.16;4889219;29;20727;-65
2022/10/03 06:26:51;;;;;;;0.20;0.20;;;7.60;99.90;;;7.63;100.00;101879.53;4842225;29;20213;-65
2022/10/03 06:30:10;;;;;;;0.20;0.20;;;7.60;99.90;;;7.67;100.00;101888.47;4846435;29;20209;-65
2022/10/03 06:33:00;;;;;;;0.20;0.20;;;7.60;99.90;;;7.70;100.00;101885.97;4836291;29;20697;-66
2022/10/03 06:35:49;;;;;;;0.20;0.20;;;7.60;99.90;;;7.74;100.00;101887.91;4832900;29;20225;-65
2022/10/03 06:38:35;;;;;;;0.20;0.20;;;7.70;99.90;;;7.71;100.00;101886.03;4851017;29;20658;-65
2022/10/03 06:42:06;;;;;;;0.20;0.20;;;7.70;99.90;;;7.75;100.00;101886.16;4836940;29;20223;-65
2022/10/03 06:45:08;;;;;;;0.22;0.22;;;7.70;99.90;;;7.94;100.00;101915.13;4841292;29;20248;-66
2022/10/03 06:48:01;;;;;;;0.20;0.20;;;7.80;99.90;;;7.92;100.00;101917.69;4843071;29;20214;-64
2022/10/03 06:50:51;;;;;;;0.10;0.10;;;7.90;99.90;;;7.76;100.00;101899.41;4863718;29;20292;-66
2022/10/03 06:53:39;;;;;;;0.20;0.20;;;7.80;99.90;;;7.87;100.00;101907.81;4843864;29;20541;-64
2022/10/03 06:56:47;;;;;;;0.20;0.20;;;7.90;99.90;;;8.00;100.00;101928.56;4854486;29;20213;-65
2022/10/03 06:59:20;;;;;;;0.35;0.35;;;8.00;99.90;;;8.23;100.00;101950.63;4845302;29;20220;-65
2022/10/03 07:02:40;;;;;;;0.93;0.93;;;8.20;99.90;;;8.68;100.00;101988.59;4826332;29;20213;-66
2022/10/03 07:05:53;;;;;;;0.20;0.20;;;8.40;99.90;;;8.92;100.00;102004.53;4815461;29;20237;-65
2022/10/03 07:08:39;;;;;;;0.30;0.30;;;8.70;99.90;;;9.02;100.00;102021.66;4848354;29;20221;-67
2022/10/03 07:11:31;;;;;;;0.15;0.15;;;8.80;99.90;;;8.99;100.00;102025.06;4843193;29;20218;-65
2022/10/03 07:14:35;;;;;;;0.10;0.10;;;8.80;99.90;;;9.08;100.00;102037.72;4849809;29;20245;-66
2022/10/03 07:17:28;;;;;;;0.10;0.10;;;9.00;99.90;;;9.12;100.00;102048.50;4848771;29;20221;-64
2022/10/03 07:20:21;;;;;;;0.10;0.10;;;9.10;99.90;;;8.98;100.00;102041.72;4861667;29;20588;-64
2022/10/03 07:23:32;;;;;;;0.00;0.00;;;9.00;99.90;;;9.30;100.00;102069.47;4883624;29;20222;-64
2022/10/03 07:26:53;;;;;;;0.10;0.10;;;9.20;99.90;;;9.40;100.00;102084.84;4886946;29;20232;-65
2022/10/03 07:29:40;;;;;;;0.52;0.20;;;9.30;99.90;;;9.56;100.00;102102.19;4858516;29;20217;-66
2022/10/03 07:32:11;;;;;;;0.25;0.25;;;9.50;99.90;;;9.67;100.00;102111.44;4858807;29;20224;-64
2022/10/03 07:38:56;;;;;;;0.20;0.20;;;9.60;99.90;;;9.73;100.00;102118.72;4856864;29;20232;-65
2022/10/03 07:39:01;;;;;;;0.20;0.20;;;9.70;99.90;;;9.84;100.00;102139.44;4860153;29;20214;-66
2022/10/03 07:41:37;;;;;;;0.20;0.20;;;9.80;99.90;;;9.97;100.00;102148.72;4823511;29;20217;-65
2022/10/03 07:44:49;;;;;;;0.45;0.32;;;9.90;99.90;;;10.12;100.00;102154.59;4850214;29;20233;-64
2022/10/03 07:47:51;;;;;;;0.00;0.00;;;10.00;99.90;;;10.26;100.00;102173.66;4864179;29;20217;-64
2022/10/03 07:50:50;;;;;;;0.00;0.00;;;10.20;99.90;;;10.45;100.00;102181.50;4877083;29;20224;-65
2022/10/03 07:53:42;;;;;;;0.98;0.98;;;10.30;99.90;;;10.40;100.00;102172.47;4879467;29;20241;-64
2022/10/03 07:56:49;;;;;;;0.10;0.10;;;10.40;99.90;;;10.56;100.00;102176.59;4890512;29;20217;-65
2022/10/03 07:59:32;;;;;;;0.45;0.45;;;10.50;99.90;;;10.96;100.00;102205.41;4858765;29;20202;-65
2022/10/03 08:02:43;;;;;;;0.00;0.00;;;10.70;99.90;;;10.92;100.00;102176.13;4854144;29;20231;-66
2022/10/03 08:05:48;;;;;;;0.22;0.22;;;10.90;99.90;;;11.15;100.00;102178.72;4856353;29;20237;-64
2022/10/03 08:08:51;;;;;;;0.10;0.10;;;11.00;99.90;;;11.15;100.00;102175.16;4839946;29;20209;-64
2022/10/03 08:11:54;;;;;;;0.10;0.10;;;11.10;99.90;;;11.11;100.00;102168.88;4886269;29;20213;-65
2022/10/03 08:14:47;;;;;;;0.82;0.82;;;11.00;99.90;;;11.04;100.00;102158.00;4850107;29;20312;-64
2022/10/03 08:17:38;;;;;;;0.10;0.10;;;11.00;99.90;;;11.08;100.00;102160.81;4820258;29;20213;-64
2022/10/03 08:20:25;;;;;;;0.20;0.20;;;11.00;99.90;;;11.24;100.00;102175.47;4833453;29;20218;-64
2022/10/03 08:23:43;;;;;;;0.10;0.10;;;11.10;99.90;;;11.35;100.00;102181.13;4847895;29;20218;-65
2022/10/03 08:26:31;;;;;;;0.10;0.10;;;11.20;99.90;;;11.25;100.00;102169.34;4873458;29;20214;-64
2022/10/03 08:29:33;;;;;;;0.30;0.30;;;11.20;99.90;;;11.44;100.00;102189.41;4860408;29;20583;-65
2022/10/03 08:32:25;;;;;;;0.00;0.00;;;11.30;99.90;;;11.55;100.00;102172.09;4861372;29;20209;-65
2022/10/03 08:35:15;;;;;;;0.25;0.25;;;11.40;99.90;;;11.59;100.00;102171.34;4838097;29;20721;-65
2022/10/03 08:38:17;;;;;;;0.20;0.20;;;11.50;99.90;;;11.58;100.00;102164.25;4851189;29;20224;-66
2022/10/03 08:41:08;;;;;;;0.60;0.60;;;11.50;99.90;;;11.48;100.00;102152.44;4829032;29;20205;-66
2022/10/03 08:44:19;;;;;;;0.10;0.10;;;11.50;99.90;;;11.68;100.00;102158.38;4853783;29;20706;-63
2022/10/03 08:47:43;;;;;;;0.57;0.57;;;11.50;99.90;;;11.73;100.00;102154.16;4869603;29;20221;-64
2022/10/03 08:50:34;;;;;;;0.10;0.10;;;11.70;99.90;;;11.75;100.00;102135.66;4834751;29;20213;-63
2022/10/03 08:53:48;;;;;;;0.20;0.20;;;11.70;99.90;;;11.92;100.00;102133.56;4864394;29;20209;-64
2022/10/03 08:56:44;;;;;;;0.10;0.10;;;11.80;99.90;;;12.05;100.00;102135.75;4835567;29;20214;-64
2022/10/03 08:59:53;;;;;;;0.00;0.00;;;11.90;99.90;;;12.21;100.00;102129.13;4858524;29;20221;-64
2022/10/03 09:02:55;;;;;;;0.00;0.00;;;12.10;99.90;;;12.23;100.00;102112.41;4829159;29;20213;-65
2022/10/03 09:06:08;;;;;;;0.03;0.03;;;12.10;99.90;;;12.29;100.00;102112.59;4872786;29;20666;-64
2022/10/03 09:09:01;;;;;;;0.00;0.00;;;12.20;99.90;;;12.35;100.00;102104.81;4841865;29;20220;-64
2022/10/03 09:12:06;;;;;;;0.00;0.00;;;12.20;99.90;;;12.56;100.00;102100.94;4832821;29;20208;-66
2022/10/03 09:15:06;;;;;;;0.70;0.70;;;12.40;99.90;;;12.44;100.00;102086.47;4842190;29;20442;-64
2022/10/03 09:18:33;;;;;;;0.10;0.10;;;12.40;99.90;;;12.51;100.00;102084.91;4831540;29;20201;-64
2022/10/03 09:21:23;;;;;;;0.05;0.05;;;12.40;99.90;;;12.65;100.00;102079.97;4828444;29;20222;-64
2022/10/03 09:24:17;;;;;;;0.30;0.30;;;12.50;99.90;;;12.66;100.00;102065.84;4863112;29;20240;-64
2022/10/03 09:27:11;;;;;;;0.00;0.00;;;12.60;99.90;;;12.83;100.00;102064.50;4874477;29;20221;-64
2022/10/03 09:30:01;;;;;;;0.03;0.03;;;12.70;99.90;;;12.87;100.00;102057.53;4839632;29;20221;-64
2022/10/03 09:32:53;;;;;;;0.10;0.10;;;12.70;99.90;;;13.01;100.00;102064.13;4855122;29;20670;-63
2022/10/03 09:35:39;;;;;;;0.13;0.05;;;12.80;99.90;;;13.10;100.00;102059.03;4859435;29;20233;-64
2022/10/03 09:39:00;;;;;;;0.10;0.10;;;13.00;99.90;;;12.99;100.00;102029.50;4845882;29;20213;-65
2022/10/03 09:42:14;;;;;;;0.05;0.05;;;13.00;99.90;;;13.20;100.00;102013.25;4846946;29;20208;-64
2022/10/03 09:45:23;;;;;;;0.00;0.00;;;13.10;99.90;;;13.24;100.00;102014.22;4848793;29;20232;-64
2022/10/03 09:48:11;;;;;;;0.10;0.10;;;13.20;99.90;;;13.44;100.00;102029.75;4854927;29;20701;-64
2022/10/03 09:51:08;;;;;;;0.10;0.10;;;13.30;99.90;;;13.85;100.00;102053.69;4887748;29;20217;-65
2022/10/03 09:53:43;;;;;;;0.05;0.05;;;13.60;99.90;;;14.05;100.00;102047.03;4859643;29;20229;-65
2022/10/03 09:56:32;;;;;;;0.00;0.00;;;13.90;99.90;;;14.08;100.00;102028.47;4894172;29;20208;-64
2022/10/03 09:59:59;;;;;;;0.10;0.10;;;14.00;99.90;;;14.31;100.00;102042.28;4848378;29;20228;-65
2022/10/03 10:02:48;;;;;;;0.00;0.00;;;14.10;99.90;;;14.41;100.00;102040.69;4837605;29;20599;-64
2022/10/03 10:05:44;;;;;;;0.00;0.00;;;14.20;99.90;;;14.69;100.00;102028.78;4870655;29;20234;-66
2022/10/03 10:08:50;;;;;;;0.00;0.00;;;14.60;99.90;;;14.67;100.00;102017.22;4880168;29;20221;-65
2022/10/03 10:11:58;;;;;;;0.00;0.00;;;14.70;99.90;;;14.77;100.00;101997.88;4826865;29;20530;-65
2022/10/03 10:14:51;;;;;;;0.20;0.20;;;14.80;99.90;;;15.25;100.00;102023.50;4837881;29;20244;-65
2022/10/03 10:17:51;;;;;;;0.13;0.13;;;15.10;99.90;;;14.98;100.00;101966.25;4860070;29;20209;-63
2022/10/03 10:20:23;;;;;;;0.00;0.00;;;15.20;99.90;;;14.82;100.00;101966.88;4865886;29;20221;-64
2022/10/03 10:23:19;;;;;;;0.00;0.00;;;15.10;99.90;;;14.88;100.00;101966.06;4843365;29;20220;-64
2022/10/03 10:26:59;;;;;;;0.00;0.00;;;15.00;99.90;;;14.97;100.00;101958.22;4844415;29;20237;-63
2022/10/03 10:29:55;;;;;;;0.00;0.00;;;15.10;99.90;;;14.82;100.00;101928.69;4831688;29;20225;-64
2022/10/03 10:32:58;;;;;;;0.00;0.00;;;15.20;99.90;;;14.72;100.00;101920.56;4872979;29;20209;-63
2022/10/03 10:36:26;;;;;;;0.10;0.10;;;15.00;99.90;;;14.75;100.00;101946.34;4834071;29;20326;-63
2022/10/03 10:39:12;;;;;;;0.00;0.00;;;14.90;99.90;;;15.31;100.00;101997.81;4832310;29;20217;-62
2022/10/03 10:42:11;;;;;;;0.10;0.10;;;15.20;99.90;;;15.52;100.00;101986.56;4854103;29;20222;-63
2022/10/03 10:45:39;;;;;;;0.30;0.30;;;15.60;99.90;;;15.12;100.00;101938.91;4843469;29;20233;-64
2022/10/03 10:48:45;;;;;;;0.00;0.00;;;15.30;99.90;;;14.68;100.00;101885.88;4846095;29;20231;-63
2022/10/03 10:52:12;;;;;;;0.00;0.00;;;15.00;99.90;;;14.78;100.00;101908.22;4832243;29;20220;-63
2022/10/03 10:55:29;;;;;;;0.15;0.15;;;14.90;99.90;;;14.88;100.00;101926.13;4780716;29;20243;-63
2022/10/03 10:58:38;;;;;;;0.00;0.00;;;15.00;99.90;;;15.01;100.00;101942.31;4865553;29;20221;-65
2022/10/03 11:01:39;;;;;;;0.00;0.00;;;15.30;99.90;;;15.11;100.00;101926.44;4797933;29;20654;-65
2022/10/03 11:04:34;;;;;;;0.00;0.00;;;15.30;99.90;;;15.15;100.00;101912.31;4835084;29;20245;-65
2022/10/03 11:07:45;;;;;;;0.00;0.00;;;15.30;99.90;;;15.19;100.00;101900.81;4881603;29;20217;-65
2022/10/03 11:10:35;;;;;;;0.10;0.10;;;15.30;99.90;;;15.35;100.00;101922.34;4834308;29;20213;-65
2022/10/03 11:14:14;;;;;;;0.00;0.00;;;15.40;99.90;;;15.15;100.00;101875.00;4819728;29;20212;-65
2022/10/03 11:17:03;;;;;;;1.10;0.80;;;15.40;99.90;;;15.21;100.00;101885.72;4850437;29;20228;-64
2022/10/03 11:20:23;;;;;;;0.00;0.00;;;15.20;99.90;;;15.37;100.00;101895.72;4849039;29;20225;-64
2022/10/03 11:23:47;;;;;;;0.00;0.00;;;15.30;99.90;;;15.36;100.00;101883.25;4848659;29;20225;-65
2022/10/03 11:26:55;;;;;;;0.00;0.00;;;15.40;99.90;;;15.32;100.00;101870.78;4849051;29;20209;-63
2022/10/03 11:29:53;;;;;;;0.00;0.00;;;15.70;99.90;;;15.14;100.00;101822.56;4855431;29;20213;-63
2022/10/03 11:33:00;;;;;;;0.00;0.00;;;15.50;99.90;;;15.41;100.00;101878.88;4839084;29;20210;-63
2022/10/03 11:35:56;;;;;;;0.00;0.00;;;15.50;99.90;;;15.52;100.00;101865.69;4849138;29;20235;-63
2022/10/03 11:38:31;;;;;;;0.00;0.00;;;15.60;99.90;;;15.54;100.00;101847.91;4827286;29;20226;-63
2022/10/03 11:41:37;;;;;;;0.00;0.00;;;15.70;99.90;;;15.70;100.00;101865.06;4849562;29;20220;-63
2022/10/03 11:44:26;;;;;;;0.00;0.00;;;15.70;99.90;;;15.61;100.00;101799.19;4868037;29;20720;-62
2022/10/03 11:47:41;;;;;;;0.28;0.28;;;15.60;99.90;;;15.61;100.00;101785.84;4850235;29;20221;-63
2022/10/03 11:50:50;;;;;;;0.00;0.00;;;15.90;99.90;;;15.93;100.00;101829.72;4855528;29;20229;-63
2022/10/03 11:53:55;;;;;;;0.10;0.10;;;16.00;99.90;;;16.01;100.00;101816.44;4838516;29;20237;-63
2022/10/03 11:57:01;;;;;;;0.00;0.00;;;16.00;99.90;;;16.04;100.00;101816.47;4813023;29;20218;-63
2022/10/03 11:59:56;;;;;;;0.00;0.00;;;16.20;99.90;;;16.70;100.00;101887.34;4860609;29;20252;-63
2022/10/03 12:03:21;;;;;;;0.00;0.00;;;16.60;99.90;;;16.41;100.00;101814.09;4841358;29;20228;-63
2022/10/03 12:09:25;;;;;;;0.00;0.00;;;16.90;99.90;;;16.91;100.00;101815.34;4883137;29;20209;-63
2022/10/03 12:11:57;;;;;;;0.00;0.00;;;17.00;99.90;;;16.77;100.00;101792.09;4861938;29;20216;-63
2022/10/03 12:14:43;;;;;;;0.00;0.00;;;16.90;99.90;;;16.88;100.00;101793.94;4844364;29;20229;-63
2022/10/03 12:17:31;;;;;;;0.00;0.00;;;17.20;99.90;;;16.81;100.00;101759.16;4886983;29;20215;-63
2022/10/03 12:20:17;;;;;;;0.00;0.00;;;17.20;99.90;;;16.82;100.00;101776.97;4843846;24;20244;-64
2022/10/03 12:23:00;;;;;;;0.57;0.57;;;17.10;99.90;;;16.72;100.00;101769.81;4834181;29;20216;-65
2022/10/03 12:25:34;;;;;;;0.05;0.05;;;17.00;99.90;;;16.53;100.00;101723.38;4820391;29;20213;-66
2022/10/03 12:28:14;;;;;;;0.00;0.00;;;17.00;99.90;;;16.28;100.00;101674.28;4818931;29;20584;-66
2022/10/03 12:31:19;;;;;;;0.00;0.00;;;16.80;99.90;;;16.72;100.00;101733.28;4809389;29;20209;-65